sensor_id;sensor_type;location;lat;lon;timestamp;P1;durP1;ratioP1;P2;durP2;ratioP2
5787;SDS011;2920;48.158;12.254;2023-03-19T00:01:40;10.85;;;5.03;;
5787;SDS011;2920;48.158;12.254;2023-03-19T00:04:05;9.43;;;5.40;;
5787;SDS011;2920;48.158;12.254;2023-03-19T00:06:30;10.73;;;5.72;;
5787;SDS011;2920;48.158;12.254;2023-03-19T00:08:56;6.70;;;4.70;;
5787;SDS011;2920;48.158;12.254;2023-03-19T00:11:21;11.20;;;5.95;;
5787;SDS011;2920;48.158;12.254;2023-03-19T00:13:46;8.45;;;5.28;;
5787;SDS011;2920;48.158;12.254;2023-03-19T00:16:12;10.00;;;6.13;;
5787;SDS011;2920;48.158;12.254;2023-03-19T00:18:37;11.38;;;6.70;;
5787;SDS011;2920;48.158;12.254;2023-03-19T00:21:02;14.10;;;5.97;;
5787;SDS011;2920;48.158;12.254;2023-03-19T00:23:28;10.50;;;5.40;;
5787;SDS011;2920;48.158;12.254;2023-03-19T00:25:53;12.85;;;7.60;;
5787;SDS011;2920;48.158;12.254;2023-03-19T00:28:19;16.98;;;9.05;;
5787;SDS011;2920;48.158;12.254;2023-03-19T00:30:44;21.73;;;8.90;;
5787;SDS011;2920;48.158;12.254;2023-03-19T00:33:10;14.90;;;8.13;;
5787;SDS011;2920;48.158;12.254;2023-03-19T00:35:35;12.43;;;7.95;;
5787;SDS011;2920;48.158;12.254;2023-03-19T00:38:00;10.70;;;6.30;;
5787;SDS011;2920;48.158;12.254;2023-03-19T00:40:26;10.43;;;6.03;;
5787;SDS011;2920;48.158;12.254;2023-03-19T00:42:51;14.60;;;7.10;;
5787;SDS011;2920;48.158;12.254;2023-03-19T00:45:17;10.80;;;6.72;;
5787;SDS011;2920;48.158;12.254;2023-03-19T00:47:42;11.48;;;6.70;;
5787;SDS011;2920;48.158;12.254;2023-03-19T00:50:07;11.57;;;6.45;;
5787;SDS011;2920;48.158;12.254;2023-03-19T00:52:33;9.43;;;5.75;;
5787;SDS011;2920;48.158;12.254;2023-03-19T00:54:59;13.93;;;6.88;;
5787;SDS011;2920;48.158;12.254;2023-03-19T00:57:24;11.85;;;6.53;;
5787;SDS011;2920;48.158;12.254;2023-03-19T00:59:50;12.57;;;7.35;;
5787;SDS011;2920;48.158;12.254;2023-03-19T01:02:15;10.35;;;6.90;;
5787;SDS011;2920;48.158;12.254;2023-03-19T01:04:41;15.70;;;7.55;;
5787;SDS011;2920;48.158;12.254;2023-03-19T01:07:06;14.07;;;7.95;;
5787;SDS011;2920;48.158;12.254;2023-03-19T01:09:32;14.93;;;7.97;;
5787;SDS011;2920;48.158;12.254;2023-03-19T01:11:57;16.60;;;7.93;;
5787;SDS011;2920;48.158;12.254;2023-03-19T01:14:23;15.60;;;7.90;;
5787;SDS011;2920;48.158;12.254;2023-03-19T01:16:48;12.65;;;7.30;;
5787;SDS011;2920;48.158;12.254;2023-03-19T01:19:13;13.52;;;7.55;;
5787;SDS011;2920;48.158;12.254;2023-03-19T01:21:40;12.52;;;7.10;;
5787;SDS011;2920;48.158;12.254;2023-03-19T01:26:35;15.70;;;7.85;;
5787;SDS011;2920;48.158;12.254;2023-03-19T01:29:00;15.57;;;7.47;;
5787;SDS011;2920;48.158;12.254;2023-03-19T01:31:25;16.65;;;7.63;;
5787;SDS011;2920;48.158;12.254;2023-03-19T01:33:51;15.93;;;7.93;;
5787;SDS011;2920;48.158;12.254;2023-03-19T01:36:16;17.15;;;8.73;;
5787;SDS011;2920;48.158;12.254;2023-03-19T01:38:42;15.40;;;8.32;;
5787;SDS011;2920;48.158;12.254;2023-03-19T01:41:07;18.73;;;9.77;;
5787;SDS011;2920;48.158;12.254;2023-03-19T01:43:33;21.40;;;9.45;;
5787;SDS011;2920;48.158;12.254;2023-03-19T01:45:59;18.15;;;9.82;;
5787;SDS011;2920;48.158;12.254;2023-03-19T01:48:28;25.10;;;10.90;;
5787;SDS011;2920;48.158;12.254;2023-03-19T01:50:58;21.02;;;11.43;;
5787;SDS011;2920;48.158;12.254;2023-03-19T01:53:28;22.42;;;11.20;;
5787;SDS011;2920;48.158;12.254;2023-03-19T01:55:57;25.42;;;11.02;;
5787;SDS011;2920;48.158;12.254;2023-03-19T01:58:25;19.63;;;9.63;;
5787;SDS011;2920;48.158;12.254;2023-03-19T02:00:51;19.88;;;10.48;;
5787;SDS011;2920;48.158;12.254;2023-03-19T02:03:16;15.77;;;8.90;;
5787;SDS011;2920;48.158;12.254;2023-03-19T02:05:42;14.45;;;7.53;;
5787;SDS011;2920;48.158;12.254;2023-03-19T02:08:09;14.98;;;7.10;;
5787;SDS011;2920;48.158;12.254;2023-03-19T02:10:36;13.82;;;7.65;;
5787;SDS011;2920;48.158;12.254;2023-03-19T02:13:01;16.30;;;7.28;;
5787;SDS011;2920;48.158;12.254;2023-03-19T02:15:26;16.27;;;7.80;;
5787;SDS011;2920;48.158;12.254;2023-03-19T02:17:52;20.55;;;10.30;;
5787;SDS011;2920;48.158;12.254;2023-03-19T02:20:24;20.52;;;10.30;;
5787;SDS011;2920;48.158;12.254;2023-03-19T02:28:09;12.52;;;6.32;;
5787;SDS011;2920;48.158;12.254;2023-03-19T02:30:35;13.73;;;7.60;;
5787;SDS011;2920;48.158;12.254;2023-03-19T02:33:01;15.63;;;8.55;;
5787;SDS011;2920;48.158;12.254;2023-03-19T02:35:26;15.60;;;8.38;;
5787;SDS011;2920;48.158;12.254;2023-03-19T02:37:55;14.70;;;8.10;;
5787;SDS011;2920;48.158;12.254;2023-03-19T02:40:40;18.25;;;8.48;;
5787;SDS011;2920;48.158;12.254;2023-03-19T02:43:15;18.15;;;7.88;;
5787;SDS011;2920;48.158;12.254;2023-03-19T02:45:40;17.02;;;9.40;;
5787;SDS011;2920;48.158;12.254;2023-03-19T02:48:06;18.38;;;9.30;;
5787;SDS011;2920;48.158;12.254;2023-03-19T02:50:31;21.38;;;9.75;;
5787;SDS011;2920;48.158;12.254;2023-03-19T02:52:56;15.60;;;9.15;;
5787;SDS011;2920;48.158;12.254;2023-03-19T02:55:21;21.92;;;10.65;;
5787;SDS011;2920;48.158;12.254;2023-03-19T02:57:47;21.70;;;11.15;;
5787;SDS011;2920;48.158;12.254;2023-03-19T03:00:12;22.50;;;10.55;;
5787;SDS011;2920;48.158;12.254;2023-03-19T03:02:38;22.35;;;10.10;;
5787;SDS011;2920;48.158;12.254;2023-03-19T03:05:04;15.38;;;8.43;;
5787;SDS011;2920;48.158;12.254;2023-03-19T03:07:30;15.15;;;8.65;;
5787;SDS011;2920;48.158;12.254;2023-03-19T03:09:56;19.63;;;9.95;;
5787;SDS011;2920;48.158;12.254;2023-03-19T03:12:22;18.85;;;9.73;;
5787;SDS011;2920;48.158;12.254;2023-03-19T03:14:47;14.32;;;8.10;;
5787;SDS011;2920;48.158;12.254;2023-03-19T03:17:13;22.38;;;9.43;;
5787;SDS011;2920;48.158;12.254;2023-03-19T03:19:39;15.77;;;7.90;;
5787;SDS011;2920;48.158;12.254;2023-03-19T03:22:04;17.73;;;9.13;;
5787;SDS011;2920;48.158;12.254;2023-03-19T03:24:30;21.65;;;9.77;;
5787;SDS011;2920;48.158;12.254;2023-03-19T03:26:55;23.50;;;10.95;;
5787;SDS011;2920;48.158;12.254;2023-03-19T03:29:21;18.65;;;9.10;;
5787;SDS011;2920;48.158;12.254;2023-03-19T03:31:46;20.75;;;10.20;;
5787;SDS011;2920;48.158;12.254;2023-03-19T03:34:11;15.43;;;8.77;;
5787;SDS011;2920;48.158;12.254;2023-03-19T03:36:37;19.05;;;9.35;;
5787;SDS011;2920;48.158;12.254;2023-03-19T03:39:02;17.77;;;9.35;;
5787;SDS011;2920;48.158;12.254;2023-03-19T03:41:28;21.52;;;11.35;;
5787;SDS011;2920;48.158;12.254;2023-03-19T03:43:53;15.25;;;8.20;;
5787;SDS011;2920;48.158;12.254;2023-03-19T03:46:18;15.45;;;7.78;;
5787;SDS011;2920;48.158;12.254;2023-03-19T03:48:44;21.80;;;10.05;;
5787;SDS011;2920;48.158;12.254;2023-03-19T03:51:09;14.13;;;6.65;;
5787;SDS011;2920;48.158;12.254;2023-03-19T03:53:35;19.33;;;8.80;;
5787;SDS011;2920;48.158;12.254;2023-03-19T03:56:01;14.15;;;7.13;;
5787;SDS011;2920;48.158;12.254;2023-03-19T03:58:26;17.00;;;8.55;;
5787;SDS011;2920;48.158;12.254;2023-03-19T04:00:51;17.38;;;8.90;;
5787;SDS011;2920;48.158;12.254;2023-03-19T04:03:18;13.35;;;6.95;;
5787;SDS011;2920;48.158;12.254;2023-03-19T04:05:44;13.98;;;7.70;;
5787;SDS011;2920;48.158;12.254;2023-03-19T04:08:09;16.98;;;9.07;;
5787;SDS011;2920;48.158;12.254;2023-03-19T04:10:38;15.15;;;8.45;;
5787;SDS011;2920;48.158;12.254;2023-03-19T04:13:04;17.42;;;8.07;;
5787;SDS011;2920;48.158;12.254;2023-03-19T04:15:30;17.73;;;9.23;;
5787;SDS011;2920;48.158;12.254;2023-03-19T04:17:55;16.80;;;10.07;;
5787;SDS011;2920;48.158;12.254;2023-03-19T04:20:20;17.00;;;9.57;;
5787;SDS011;2920;48.158;12.254;2023-03-19T04:22:47;16.98;;;9.48;;
5787;SDS011;2920;48.158;12.254;2023-03-19T04:25:13;18.50;;;9.05;;
5787;SDS011;2920;48.158;12.254;2023-03-19T04:27:38;19.17;;;9.02;;
5787;SDS011;2920;48.158;12.254;2023-03-19T04:30:03;19.30;;;9.20;;
5787;SDS011;2920;48.158;12.254;2023-03-19T04:32:29;17.00;;;8.32;;
5787;SDS011;2920;48.158;12.254;2023-03-19T04:34:55;16.05;;;7.97;;
5787;SDS011;2920;48.158;12.254;2023-03-19T04:37:22;18.88;;;9.60;;
5787;SDS011;2920;48.158;12.254;2023-03-19T04:39:47;19.35;;;9.10;;
5787;SDS011;2920;48.158;12.254;2023-03-19T04:42:12;15.27;;;8.43;;
5787;SDS011;2920;48.158;12.254;2023-03-19T04:44:38;16.70;;;8.85;;
5787;SDS011;2920;48.158;12.254;2023-03-19T04:47:03;16.42;;;9.15;;
5787;SDS011;2920;48.158;12.254;2023-03-19T04:49:29;14.18;;;7.90;;
5787;SDS011;2920;48.158;12.254;2023-03-19T04:51:55;20.88;;;10.27;;
5787;SDS011;2920;48.158;12.254;2023-03-19T04:54:21;16.70;;;9.40;;
5787;SDS011;2920;48.158;12.254;2023-03-19T04:56:47;20.08;;;9.88;;
5787;SDS011;2920;48.158;12.254;2023-03-19T04:59:12;22.83;;;9.35;;
5787;SDS011;2920;48.158;12.254;2023-03-19T05:01:38;21.30;;;10.27;;
5787;SDS011;2920;48.158;12.254;2023-03-19T05:04:03;19.25;;;9.10;;
5787;SDS011;2920;48.158;12.254;2023-03-19T05:06:28;19.23;;;9.35;;
5787;SDS011;2920;48.158;12.254;2023-03-19T05:08:55;19.13;;;10.23;;
5787;SDS011;2920;48.158;12.254;2023-03-19T05:11:20;21.45;;;11.13;;
5787;SDS011;2920;48.158;12.254;2023-03-19T05:13:46;21.90;;;10.80;;
5787;SDS011;2920;48.158;12.254;2023-03-19T05:16:11;20.58;;;11.27;;
5787;SDS011;2920;48.158;12.254;2023-03-19T05:18:37;23.20;;;10.75;;
5787;SDS011;2920;48.158;12.254;2023-03-19T05:21:03;16.55;;;9.43;;
5787;SDS011;2920;48.158;12.254;2023-03-19T05:23:28;19.58;;;8.93;;
5787;SDS011;2920;48.158;12.254;2023-03-19T05:25:54;18.65;;;10.10;;
5787;SDS011;2920;48.158;12.254;2023-03-19T05:28:22;19.08;;;9.80;;
5787;SDS011;2920;48.158;12.254;2023-03-19T05:30:47;17.88;;;8.95;;
5787;SDS011;2920;48.158;12.254;2023-03-19T05:33:13;17.77;;;10.65;;
5787;SDS011;2920;48.158;12.254;2023-03-19T05:35:38;15.65;;;8.27;;
5787;SDS011;2920;48.158;12.254;2023-03-19T05:38:04;21.88;;;10.32;;
5787;SDS011;2920;48.158;12.254;2023-03-19T05:40:30;18.73;;;9.15;;
5787;SDS011;2920;48.158;12.254;2023-03-19T05:42:56;20.70;;;10.73;;
5787;SDS011;2920;48.158;12.254;2023-03-19T05:45:21;16.50;;;9.90;;
5787;SDS011;2920;48.158;12.254;2023-03-19T05:47:47;28.48;;;11.15;;
5787;SDS011;2920;48.158;12.254;2023-03-19T05:50:13;14.70;;;9.07;;
5787;SDS011;2920;48.158;12.254;2023-03-19T05:52:38;15.52;;;8.02;;
5787;SDS011;2920;48.158;12.254;2023-03-19T05:55:03;16.88;;;9.60;;
5787;SDS011;2920;48.158;12.254;2023-03-19T05:57:29;18.58;;;9.68;;
5787;SDS011;2920;48.158;12.254;2023-03-19T05:59:55;20.65;;;10.68;;
5787;SDS011;2920;48.158;12.254;2023-03-19T06:02:20;20.23;;;10.80;;
5787;SDS011;2920;48.158;12.254;2023-03-19T06:04:46;19.17;;;9.55;;
5787;SDS011;2920;48.158;12.254;2023-03-19T06:07:11;23.52;;;12.65;;
5787;SDS011;2920;48.158;12.254;2023-03-19T06:09:37;21.45;;;12.13;;
5787;SDS011;2920;48.158;12.254;2023-03-19T06:12:02;19.50;;;10.45;;
5787;SDS011;2920;48.158;12.254;2023-03-19T06:14:28;18.95;;;10.63;;
5787;SDS011;2920;48.158;12.254;2023-03-19T06:16:53;26.05;;;12.32;;
5787;SDS011;2920;48.158;12.254;2023-03-19T06:19:18;23.48;;;12.18;;
5787;SDS011;2920;48.158;12.254;2023-03-19T06:21:43;23.38;;;12.45;;
5787;SDS011;2920;48.158;12.254;2023-03-19T06:24:09;22.08;;;12.73;;
5787;SDS011;2920;48.158;12.254;2023-03-19T06:26:34;26.65;;;13.38;;
5787;SDS011;2920;48.158;12.254;2023-03-19T06:29:00;26.55;;;13.75;;
5787;SDS011;2920;48.158;12.254;2023-03-19T06:31:25;30.48;;;13.75;;
5787;SDS011;2920;48.158;12.254;2023-03-19T06:33:51;30.02;;;13.80;;
5787;SDS011;2920;48.158;12.254;2023-03-19T06:36:17;25.38;;;13.15;;
5787;SDS011;2920;48.158;12.254;2023-03-19T06:38:43;26.02;;;12.60;;
5787;SDS011;2920;48.158;12.254;2023-03-19T06:41:08;30.40;;;14.45;;
5787;SDS011;2920;48.158;12.254;2023-03-19T06:43:33;28.25;;;14.52;;
5787;SDS011;2920;48.158;12.254;2023-03-19T06:46:01;27.15;;;14.52;;
5787;SDS011;2920;48.158;12.254;2023-03-19T06:48:27;23.35;;;12.30;;
5787;SDS011;2920;48.158;12.254;2023-03-19T06:50:53;22.90;;;12.73;;
5787;SDS011;2920;48.158;12.254;2023-03-19T06:53:18;25.45;;;12.95;;
5787;SDS011;2920;48.158;12.254;2023-03-19T06:55:46;19.95;;;11.95;;
5787;SDS011;2920;48.158;12.254;2023-03-19T06:58:12;28.48;;;13.25;;
5787;SDS011;2920;48.158;12.254;2023-03-19T07:00:37;26.23;;;11.45;;
5787;SDS011;2920;48.158;12.254;2023-03-19T07:03:02;20.10;;;10.32;;
5787;SDS011;2920;48.158;12.254;2023-03-19T07:05:28;22.40;;;10.57;;
5787;SDS011;2920;48.158;12.254;2023-03-19T07:07:53;23.63;;;11.27;;
5787;SDS011;2920;48.158;12.254;2023-03-19T07:10:19;19.55;;;10.02;;
5787;SDS011;2920;48.158;12.254;2023-03-19T07:12:45;21.40;;;10.40;;
5787;SDS011;2920;48.158;12.254;2023-03-19T07:15:11;17.00;;;8.88;;
5787;SDS011;2920;48.158;12.254;2023-03-19T07:17:36;17.55;;;8.88;;
5787;SDS011;2920;48.158;12.254;2023-03-19T07:20:01;12.27;;;7.97;;
5787;SDS011;2920;48.158;12.254;2023-03-19T07:22:27;18.80;;;9.13;;
5787;SDS011;2920;48.158;12.254;2023-03-19T07:24:52;17.60;;;8.15;;
5787;SDS011;2920;48.158;12.254;2023-03-19T07:27:18;16.38;;;7.78;;
5787;SDS011;2920;48.158;12.254;2023-03-19T07:29:43;16.27;;;8.27;;
5787;SDS011;2920;48.158;12.254;2023-03-19T07:32:09;14.88;;;8.23;;
5787;SDS011;2920;48.158;12.254;2023-03-19T07:34:35;14.15;;;7.97;;
5787;SDS011;2920;48.158;12.254;2023-03-19T07:37:01;12.23;;;7.53;;
5787;SDS011;2920;48.158;12.254;2023-03-19T07:39:26;15.32;;;8.93;;
5787;SDS011;2920;48.158;12.254;2023-03-19T07:41:51;16.42;;;8.95;;
5787;SDS011;2920;48.158;12.254;2023-03-19T07:44:17;17.02;;;9.07;;
5787;SDS011;2920;48.158;12.254;2023-03-19T07:46:42;13.82;;;7.82;;
5787;SDS011;2920;48.158;12.254;2023-03-19T07:49:08;17.13;;;8.80;;
5787;SDS011;2920;48.158;12.254;2023-03-19T07:51:33;13.40;;;8.18;;
5787;SDS011;2920;48.158;12.254;2023-03-19T07:53:59;14.93;;;8.65;;
5787;SDS011;2920;48.158;12.254;2023-03-19T07:56:25;14.65;;;7.70;;
5787;SDS011;2920;48.158;12.254;2023-03-19T07:58:50;13.95;;;8.23;;
5787;SDS011;2920;48.158;12.254;2023-03-19T08:01:16;16.15;;;8.10;;
5787;SDS011;2920;48.158;12.254;2023-03-19T08:03:41;15.35;;;7.72;;
5787;SDS011;2920;48.158;12.254;2023-03-19T08:06:07;16.83;;;7.97;;
5787;SDS011;2920;48.158;12.254;2023-03-19T08:08:32;16.80;;;7.70;;
5787;SDS011;2920;48.158;12.254;2023-03-19T08:10:59;14.80;;;8.73;;
5787;SDS011;2920;48.158;12.254;2023-03-19T08:13:24;14.73;;;7.82;;
5787;SDS011;2920;48.158;12.254;2023-03-19T08:15:50;16.02;;;7.25;;
5787;SDS011;2920;48.158;12.254;2023-03-19T08:18:17;15.10;;;7.72;;
5787;SDS011;2920;48.158;12.254;2023-03-19T08:20:43;15.68;;;8.00;;
5787;SDS011;2920;48.158;12.254;2023-03-19T08:23:12;14.23;;;7.63;;
5787;SDS011;2920;48.158;12.254;2023-03-19T08:25:37;13.85;;;8.15;;
5787;SDS011;2920;48.158;12.254;2023-03-19T08:28:03;12.05;;;6.75;;
5787;SDS011;2920;48.158;12.254;2023-03-19T08:30:28;12.80;;;7.30;;
5787;SDS011;2920;48.158;12.254;2023-03-19T08:32:54;14.50;;;7.65;;
5787;SDS011;2920;48.158;12.254;2023-03-19T08:35:19;13.25;;;7.22;;
5787;SDS011;2920;48.158;12.254;2023-03-19T08:37:45;15.55;;;7.25;;
5787;SDS011;2920;48.158;12.254;2023-03-19T08:40:10;13.20;;;6.85;;
5787;SDS011;2920;48.158;12.254;2023-03-19T08:42:36;11.07;;;6.80;;
5787;SDS011;2920;48.158;12.254;2023-03-19T08:45:07;12.93;;;6.75;;
5787;SDS011;2920;48.158;12.254;2023-03-19T08:47:33;13.43;;;6.43;;
5787;SDS011;2920;48.158;12.254;2023-03-19T08:49:59;13.68;;;7.57;;
5787;SDS011;2920;48.158;12.254;2023-03-19T08:52:24;13.35;;;6.47;;
5787;SDS011;2920;48.158;12.254;2023-03-19T08:54:50;10.40;;;6.50;;
5787;SDS011;2920;48.158;12.254;2023-03-19T08:57:15;12.85;;;6.45;;
5787;SDS011;2920;48.158;12.254;2023-03-19T08:59:40;10.35;;;6.30;;
5787;SDS011;2920;48.158;12.254;2023-03-19T09:02:08;15.18;;;7.32;;
5787;SDS011;2920;48.158;12.254;2023-03-19T09:04:34;10.05;;;5.95;;
5787;SDS011;2920;48.158;12.254;2023-03-19T09:07:03;12.13;;;6.47;;
5787;SDS011;2920;48.158;12.254;2023-03-19T09:09:28;7.10;;;5.35;;
5787;SDS011;2920;48.158;12.254;2023-03-19T09:11:53;13.25;;;5.55;;
5787;SDS011;2920;48.158;12.254;2023-03-19T09:14:19;9.23;;;5.35;;
5787;SDS011;2920;48.158;12.254;2023-03-19T09:16:44;8.02;;;5.50;;
5787;SDS011;2920;48.158;12.254;2023-03-19T09:19:10;11.98;;;5.43;;
5787;SDS011;2920;48.158;12.254;2023-03-19T09:21:35;7.68;;;5.40;;
5787;SDS011;2920;48.158;12.254;2023-03-19T09:24:01;8.57;;;5.18;;
5787;SDS011;2920;48.158;12.254;2023-03-19T09:26:27;8.93;;;5.07;;
5787;SDS011;2920;48.158;12.254;2023-03-19T09:28:52;7.05;;;5.18;;
5787;SDS011;2920;48.158;12.254;2023-03-19T09:31:18;7.07;;;4.55;;
5787;SDS011;2920;48.158;12.254;2023-03-19T09:33:43;6.72;;;4.28;;
5787;SDS011;2920;48.158;12.254;2023-03-19T09:36:08;7.03;;;4.13;;
5787;SDS011;2920;48.158;12.254;2023-03-19T09:38:34;6.80;;;4.20;;
5787;SDS011;2920;48.158;12.254;2023-03-19T09:41:07;7.93;;;4.40;;
5787;SDS011;2920;48.158;12.254;2023-03-19T09:46:15;5.05;;;3.70;;
5787;SDS011;2920;48.158;12.254;2023-03-19T09:51:13;5.55;;;3.78;;
5787;SDS011;2920;48.158;12.254;2023-03-19T09:53:51;6.43;;;4.30;;
5787;SDS011;2920;48.158;12.254;2023-03-19T09:56:20;10.05;;;3.90;;
5787;SDS011;2920;48.158;12.254;2023-03-19T09:58:46;6.50;;;3.67;;
5787;SDS011;2920;48.158;12.254;2023-03-19T10:01:21;6.22;;;4.15;;
5787;SDS011;2920;48.158;12.254;2023-03-19T10:03:59;6.78;;;3.95;;
5787;SDS011;2920;48.158;12.254;2023-03-19T10:06:33;6.80;;;3.92;;
5787;SDS011;2920;48.158;12.254;2023-03-19T10:17:13;10.75;;;3.72;;
5787;SDS011;2920;48.158;12.254;2023-03-19T10:19:46;8.48;;;3.70;;
5787;SDS011;2920;48.158;12.254;2023-03-19T10:22:18;6.72;;;3.65;;
5787;SDS011;2920;48.158;12.254;2023-03-19T10:24:46;6.07;;;3.70;;
5787;SDS011;2920;48.158;12.254;2023-03-19T10:27:14;5.22;;;3.70;;
5787;SDS011;2920;48.158;12.254;2023-03-19T10:29:43;4.70;;;3.72;;
5787;SDS011;2920;48.158;12.254;2023-03-19T10:34:51;7.72;;;3.78;;
5787;SDS011;2920;48.158;12.254;2023-03-19T10:37:20;6.68;;;3.42;;
5787;SDS011;2920;48.158;12.254;2023-03-19T10:39:48;8.40;;;3.33;;
5787;SDS011;2920;48.158;12.254;2023-03-19T10:42:34;4.75;;;3.63;;
5787;SDS011;2920;48.158;12.254;2023-03-19T10:47:38;6.53;;;3.35;;
5787;SDS011;2920;48.158;12.254;2023-03-19T10:50:04;5.82;;;3.42;;
5787;SDS011;2920;48.158;12.254;2023-03-19T10:52:31;6.05;;;3.55;;
5787;SDS011;2920;48.158;12.254;2023-03-19T10:55:03;4.70;;;3.10;;
5787;SDS011;2920;48.158;12.254;2023-03-19T10:57:42;8.23;;;3.20;;
5787;SDS011;2920;48.158;12.254;2023-03-19T11:00:19;6.68;;;3.33;;
5787;SDS011;2920;48.158;12.254;2023-03-19T11:02:53;5.20;;;3.30;;
5787;SDS011;2920;48.158;12.254;2023-03-19T11:07:45;5.15;;;3.28;;
5787;SDS011;2920;48.158;12.254;2023-03-19T11:10:13;5.95;;;3.45;;
5787;SDS011;2920;48.158;12.254;2023-03-19T11:12:40;5.55;;;3.05;;
5787;SDS011;2920;48.158;12.254;2023-03-19T11:15:19;4.65;;;3.20;;
5787;SDS011;2920;48.158;12.254;2023-03-19T11:17:47;5.57;;;3.20;;
5787;SDS011;2920;48.158;12.254;2023-03-19T11:22:44;8.07;;;3.50;;
5787;SDS011;2920;48.158;12.254;2023-03-19T11:25:18;6.13;;;3.22;;
5787;SDS011;2920;48.158;12.254;2023-03-19T11:28:01;5.13;;;2.95;;
5787;SDS011;2920;48.158;12.254;2023-03-19T11:36:19;7.70;;;3.47;;
5787;SDS011;2920;48.158;12.254;2023-03-19T11:44:46;5.25;;;3.28;;
5787;SDS011;2920;48.158;12.254;2023-03-19T11:47:28;5.15;;;2.90;;
5787;SDS011;2920;48.158;12.254;2023-03-19T11:50:26;4.43;;;2.65;;
5787;SDS011;2920;48.158;12.254;2023-03-19T11:53:13;3.95;;;2.70;;
5787;SDS011;2920;48.158;12.254;2023-03-19T11:55:59;4.93;;;2.92;;
5787;SDS011;2920;48.158;12.254;2023-03-19T11:59:07;6.25;;;2.90;;
5787;SDS011;2920;48.158;12.254;2023-03-19T12:01:33;5.05;;;2.83;;
5787;SDS011;2920;48.158;12.254;2023-03-19T12:04:40;5.88;;;2.80;;
5787;SDS011;2920;48.158;12.254;2023-03-19T12:07:22;4.95;;;3.10;;
5787;SDS011;2920;48.158;12.254;2023-03-19T12:15:12;4.40;;;2.65;;
5787;SDS011;2920;48.158;12.254;2023-03-19T12:17:45;3.70;;;2.55;;
5787;SDS011;2920;48.158;12.254;2023-03-19T12:30:38;5.82;;;2.72;;
5787;SDS011;2920;48.158;12.254;2023-03-19T12:33:09;4.78;;;2.70;;
5787;SDS011;2920;48.158;12.254;2023-03-19T12:35:39;5.93;;;3.10;;
5787;SDS011;2920;48.158;12.254;2023-03-19T12:38:20;5.75;;;3.30;;
5787;SDS011;2920;48.158;12.254;2023-03-19T12:40:54;6.18;;;3.20;;
5787;SDS011;2920;48.158;12.254;2023-03-19T12:46:09;6.00;;;3.30;;
5787;SDS011;2920;48.158;12.254;2023-03-19T12:48:57;5.47;;;2.83;;
5787;SDS011;2920;48.158;12.254;2023-03-19T12:51:25;5.28;;;2.78;;
5787;SDS011;2920;48.158;12.254;2023-03-19T12:53:53;4.47;;;2.90;;
5787;SDS011;2920;48.158;12.254;2023-03-19T12:56:25;4.72;;;2.85;;
5787;SDS011;2920;48.158;12.254;2023-03-19T12:58:55;5.03;;;2.95;;
5787;SDS011;2920;48.158;12.254;2023-03-19T13:01:36;5.72;;;3.63;;
5787;SDS011;2920;48.158;12.254;2023-03-19T13:04:17;7.90;;;3.22;;
5787;SDS011;2920;48.158;12.254;2023-03-19T13:06:52;6.13;;;2.90;;
5787;SDS011;2920;48.158;12.254;2023-03-19T13:12:04;5.13;;;2.85;;
5787;SDS011;2920;48.158;12.254;2023-03-19T13:23:11;3.47;;;2.17;;
5787;SDS011;2920;48.158;12.254;2023-03-19T13:25:41;4.53;;;3.00;;
5787;SDS011;2920;48.158;12.254;2023-03-19T13:28:10;4.82;;;3.88;;
5787;SDS011;2920;48.158;12.254;2023-03-19T13:30:36;4.30;;;2.47;;
5787;SDS011;2920;48.158;12.254;2023-03-19T13:33:12;3.20;;;2.20;;
5787;SDS011;2920;48.158;12.254;2023-03-19T13:35:50;3.40;;;2.65;;
5787;SDS011;2920;48.158;12.254;2023-03-19T13:38:17;3.40;;;2.40;;
5787;SDS011;2920;48.158;12.254;2023-03-19T13:40:51;4.37;;;2.90;;
5787;SDS011;2920;48.158;12.254;2023-03-19T13:43:22;2.40;;;1.80;;
5787;SDS011;2920;48.158;12.254;2023-03-19T13:51:34;5.78;;;3.28;;
5787;SDS011;2920;48.158;12.254;2023-03-19T13:59:36;3.42;;;2.00;;
5787;SDS011;2920;48.158;12.254;2023-03-19T14:04:39;7.80;;;2.92;;
5787;SDS011;2920;48.158;12.254;2023-03-19T14:15:03;3.35;;;2.20;;
5787;SDS011;2920;48.158;12.254;2023-03-19T14:17:43;4.30;;;2.60;;
5787;SDS011;2920;48.158;12.254;2023-03-19T14:22:43;4.18;;;2.40;;
5787;SDS011;2920;48.158;12.254;2023-03-19T14:25:21;2.88;;;2.38;;
5787;SDS011;2920;48.158;12.254;2023-03-19T14:27:49;5.93;;;3.40;;
5787;SDS011;2920;48.158;12.254;2023-03-19T14:33:24;5.60;;;2.70;;
5787;SDS011;2920;48.158;12.254;2023-03-19T14:35:52;6.38;;;3.05;;
5787;SDS011;2920;48.158;12.254;2023-03-19T14:38:27;6.93;;;3.10;;
5787;SDS011;2920;48.158;12.254;2023-03-19T14:40:57;3.63;;;2.72;;
5787;SDS011;2920;48.158;12.254;2023-03-19T14:53:55;4.15;;;2.10;;
5787;SDS011;2920;48.158;12.254;2023-03-19T14:56:29;3.30;;;2.27;;
5787;SDS011;2920;48.158;12.254;2023-03-19T14:58:58;3.97;;;2.83;;
5787;SDS011;2920;48.158;12.254;2023-03-19T15:01:30;5.00;;;3.05;;
5787;SDS011;2920;48.158;12.254;2023-03-19T15:04:00;5.50;;;3.22;;
5787;SDS011;2920;48.158;12.254;2023-03-19T15:06:32;6.25;;;2.72;;
5787;SDS011;2920;48.158;12.254;2023-03-19T15:08:58;2.85;;;1.95;;
5787;SDS011;2920;48.158;12.254;2023-03-19T15:12:13;3.03;;;1.98;;
5787;SDS011;2920;48.158;12.254;2023-03-19T15:14:41;3.65;;;2.10;;
5787;SDS011;2920;48.158;12.254;2023-03-19T15:17:26;3.72;;;2.72;;
5787;SDS011;2920;48.158;12.254;2023-03-19T15:19:52;3.60;;;2.40;;
5787;SDS011;2920;48.158;12.254;2023-03-19T15:22:21;3.70;;;2.80;;
5787;SDS011;2920;48.158;12.254;2023-03-19T15:24:56;2.15;;;1.70;;
5787;SDS011;2920;48.158;12.254;2023-03-19T15:27:29;3.67;;;2.00;;
5787;SDS011;2920;48.158;12.254;2023-03-19T15:29:55;3.00;;;2.15;;
5787;SDS011;2920;48.158;12.254;2023-03-19T15:34:57;3.65;;;2.65;;
5787;SDS011;2920;48.158;12.254;2023-03-19T15:37:22;3.53;;;2.25;;
5787;SDS011;2920;48.158;12.254;2023-03-19T15:39:49;3.90;;;2.15;;
5787;SDS011;2920;48.158;12.254;2023-03-19T15:42:15;3.45;;;2.40;;
5787;SDS011;2920;48.158;12.254;2023-03-19T15:44:46;2.08;;;1.52;;
5787;SDS011;2920;48.158;12.254;2023-03-19T15:47:20;1.95;;;1.42;;
5787;SDS011;2920;48.158;12.254;2023-03-19T15:49:52;2.75;;;2.03;;
5787;SDS011;2920;48.158;12.254;2023-03-19T15:52:23;2.10;;;1.60;;
5787;SDS011;2920;48.158;12.254;2023-03-19T15:54:50;1.20;;;1.10;;
5787;SDS011;2920;48.158;12.254;2023-03-19T15:57:16;4.97;;;2.67;;
5787;SDS011;2920;48.158;12.254;2023-03-19T15:59:42;3.10;;;1.83;;
5787;SDS011;2920;48.158;12.254;2023-03-19T16:02:29;2.40;;;1.83;;
5787;SDS011;2920;48.158;12.254;2023-03-19T16:04:54;5.47;;;2.30;;
5787;SDS011;2920;48.158;12.254;2023-03-19T16:07:21;2.45;;;1.40;;
5787;SDS011;2920;48.158;12.254;2023-03-19T16:09:51;3.20;;;2.10;;
5787;SDS011;2920;48.158;12.254;2023-03-19T16:15:18;3.63;;;2.45;;
5787;SDS011;2920;48.158;12.254;2023-03-19T16:18:08;2.00;;;1.38;;
5787;SDS011;2920;48.158;12.254;2023-03-19T16:21:00;4.55;;;2.47;;
5787;SDS011;2920;48.158;12.254;2023-03-19T16:23:37;1.40;;;1.30;;
5787;SDS011;2920;48.158;12.254;2023-03-19T16:26:51;2.05;;;1.27;;
5787;SDS011;2920;48.158;12.254;2023-03-19T16:31:59;2.63;;;2.08;;
5787;SDS011;2920;48.158;12.254;2023-03-19T16:34:35;1.83;;;1.52;;
5787;SDS011;2920;48.158;12.254;2023-03-19T16:39:55;1.50;;;1.33;;
5787;SDS011;2920;48.158;12.254;2023-03-19T16:45:18;2.53;;;2.30;;
5787;SDS011;2920;48.158;12.254;2023-03-19T16:47:53;1.92;;;1.33;;
5787;SDS011;2920;48.158;12.254;2023-03-19T16:50:20;1.90;;;1.30;;
5787;SDS011;2920;48.158;12.254;2023-03-19T16:52:46;1.80;;;1.40;;
5787;SDS011;2920;48.158;12.254;2023-03-19T16:55:19;4.15;;;1.63;;
5787;SDS011;2920;48.158;12.254;2023-03-19T16:57:49;2.55;;;1.40;;
5787;SDS011;2920;48.158;12.254;2023-03-19T17:00:22;3.08;;;1.40;;
5787;SDS011;2920;48.158;12.254;2023-03-19T17:02:49;1.90;;;1.60;;